createdAt,value
2018-02-22T00:00:24.297Z,34.50
2018-02-22T00:01:31.119Z,32.50
2018-02-22T00:02:38.188Z,34.60
2018-02-22T00:03:44.910Z,34.10
2018-02-22T00:04:51.684Z,32.20
2018-02-22T00:05:58.634Z,32.00
2018-02-22T00:07:05.370Z,33.50
2018-02-22T00:08:12.116Z,35.40
2018-02-22T00:09:18.835Z,33.10
2018-02-22T00:10:25.624Z,31.80
2018-02-22T00:11:32.458Z,34.70
2018-02-22T00:12:39.193Z,36.40
2018-02-22T00:13:45.927Z,30.20
2018-02-22T00:14:52.666Z,35.70
2018-02-22T00:15:59.415Z,35.00
2018-02-22T00:17:06.227Z,35.90
2018-02-22T00:18:12.964Z,33.00
2018-02-22T00:19:19.727Z,34.30
2018-02-22T00:20:26.481Z,34.50
2018-02-22T00:21:33.232Z,31.00
2018-02-22T00:22:40.011Z,31.40
2018-02-22T00:23:46.759Z,37.40
2018-02-22T00:24:53.504Z,34.80
2018-02-22T00:26:00.211Z,38.20
2018-02-22T00:27:06.999Z,35.10
2018-02-22T00:28:13.791Z,29.30
2018-02-22T00:29:20.520Z,35.40
2018-02-22T00:30:27.260Z,34.50
2018-02-22T00:31:34.022Z,36.70
2018-02-22T00:32:40.788Z,37.20
2018-02-22T00:33:47.586Z,37.90
2018-02-22T00:34:54.322Z,35.10
2018-02-22T00:36:01.146Z,40.50
2018-02-22T00:37:08.025Z,36.00
2018-02-22T00:38:14.750Z,35.50
2018-02-22T00:39:21.485Z,35.50
2018-02-22T00:40:28.228Z,36.70
2018-02-22T00:41:34.960Z,34.90
2018-02-22T00:42:41.679Z,36.80
2018-02-22T00:43:48.474Z,33.90
2018-02-22T00:44:55.186Z,37.60
2018-02-22T00:46:01.904Z,40.30
2018-02-22T00:47:08.668Z,35.20
2018-02-22T00:48:15.398Z,36.60
2018-02-22T00:49:22.227Z,40.50
2018-02-22T00:50:28.925Z,38.50
2018-02-22T00:51:35.723Z,39.20
2018-02-22T00:52:42.451Z,39.10
2018-02-22T00:53:49.138Z,37.40
2018-02-22T00:54:56.010Z,34.50
2018-02-22T00:56:02.696Z,40.00
2018-02-22T00:57:09.532Z,40.30
2018-02-22T00:58:16.276Z,41.90
2018-02-22T00:59:23.274Z,40.50
2018-02-22T01:00:29.979Z,36.90
2018-02-22T01:01:36.820Z,38.70
2018-02-22T01:02:43.685Z,43.90
2018-02-22T01:03:50.374Z,35.30
2018-02-22T01:04:57.106Z,40.10
2018-02-22T01:06:03.791Z,42.30
2018-02-22T01:07:10.520Z,41.70
2018-02-22T01:08:17.236Z,41.30
2018-02-22T01:09:23.991Z,44.30
2018-02-22T01:10:30.676Z,44.10
2018-02-22T01:11:37.383Z,43.30
2018-02-22T01:12:44.090Z,41.30
2018-02-22T01:13:50.808Z,38.20
2018-02-22T01:14:57.568Z,45.60
2018-02-22T01:16:04.339Z,42.60
2018-02-22T01:17:11.077Z,39.70
2018-02-22T01:18:17.783Z,40.50
2018-02-22T01:19:24.464Z,42.00
2018-02-22T01:20:31.203Z,41.30
2018-02-22T01:21:37.919Z,38.00
2018-02-22T01:22:44.630Z,37.20
2018-02-22T01:23:51.427Z,42.30
2018-02-22T01:24:58.147Z,42.40
2018-02-22T01:26:04.890Z,38.10
2018-02-22T01:27:11.621Z,42.70
2018-02-22T01:28:18.309Z,39.00
2018-02-22T01:29:24.977Z,38.20
2018-02-22T01:30:31.667Z,40.90
2018-02-22T01:31:38.480Z,41.00
2018-02-22T01:32:45.172Z,41.10
2018-02-22T01:33:52.099Z,40.50
2018-02-22T01:34:58.925Z,42.30
2018-02-22T01:36:05.623Z,39.60
2018-02-22T01:37:12.608Z,43.40
2018-02-22T01:38:19.397Z,39.70
2018-02-22T01:39:26.087Z,44.00
2018-02-22T01:40:32.770Z,42.80
2018-02-22T01:41:39.492Z,39.80
2018-02-22T01:42:46.199Z,43.90
2018-02-22T01:43:52.991Z,42.70
2018-02-22T01:44:59.681Z,45.60
2018-02-22T01:46:06.371Z,43.10
2018-02-22T01:47:13.213Z,39.10
2018-02-22T01:48:19.992Z,41.40
2018-02-22T01:49:26.764Z,44.40
2018-02-22T01:50:33.656Z,43.00
2018-02-22T01:51:40.400Z,39.90
2018-02-22T01:52:47.148Z,42.90
2018-02-22T01:53:53.903Z,43.90
2018-02-22T01:55:00.831Z,43.00
2018-02-22T01:56:07.507Z,43.40
2018-02-22T01:57:14.252Z,41.50
2018-02-22T01:58:20.941Z,47.80
2018-02-22T01:59:27.647Z,43.20
2018-02-22T02:00:34.343Z,42.90
2018-02-22T02:01:41.044Z,40.20
2018-02-22T02:02:47.874Z,42.40
2018-02-22T02:03:54.571Z,41.60
2018-02-22T02:05:01.279Z,41.90
2018-02-22T02:06:07.979Z,42.10
2018-02-22T02:07:14.718Z,42.60
2018-02-22T02:08:21.405Z,40.30
2018-02-22T02:09:28.115Z,42.40
2018-02-22T02:10:34.876Z,39.80
2018-02-22T02:11:41.680Z,41.50
2018-02-22T02:12:48.384Z,44.50
2018-02-22T02:13:55.106Z,35.90
2018-02-22T02:15:01.844Z,44.50
2018-02-22T02:16:08.680Z,44.00
2018-02-22T02:17:15.476Z,40.40
2018-02-22T02:18:22.159Z,40.70
2018-02-22T02:19:28.867Z,38.10
2018-02-22T02:20:35.575Z,39.20
2018-02-22T02:21:42.299Z,41.80
2018-02-22T02:22:49.008Z,39.00
2018-02-22T02:23:55.724Z,37.40
2018-02-22T02:25:02.411Z,36.10
2018-02-22T02:26:09.244Z,40.50
2018-02-22T02:27:15.939Z,37.50
2018-02-22T02:28:22.915Z,38.10
2018-02-22T02:29:29.712Z,40.90
2018-02-22T02:30:36.399Z,39.40
2018-02-22T02:31:43.102Z,39.50
2018-02-22T02:32:49.811Z,36.70
2018-02-22T02:33:56.619Z,38.80
2018-02-22T02:35:03.325Z,38.90
2018-02-22T02:36:10.148Z,42.30
2018-02-22T02:37:16.891Z,39.10
2018-02-22T02:38:23.608Z,35.50
2018-02-22T02:39:30.351Z,41.10
2018-02-22T02:40:37.057Z,35.20
2018-02-22T02:41:43.967Z,38.70
2018-02-22T02:42:50.657Z,35.90
2018-02-22T02:43:57.369Z,36.10
2018-02-22T02:45:04.067Z,40.40
2018-02-22T02:46:10.779Z,36.00
2018-02-22T02:47:17.513Z,34.20
2018-02-22T02:48:24.245Z,37.40
2018-02-22T02:49:30.986Z,35.00
2018-02-22T02:50:37.682Z,33.90
2018-02-22T02:51:44.408Z,36.70
2018-02-22T02:52:51.147Z,39.50
2018-02-22T02:53:57.883Z,37.20
2018-02-22T02:55:04.713Z,40.00
2018-02-22T02:56:11.406Z,36.40
2018-02-22T02:57:18.260Z,38.10
2018-02-22T02:58:25.055Z,33.70
2018-02-22T02:59:31.787Z,34.80
2018-02-22T03:00:38.472Z,38.90
2018-02-22T03:01:45.191Z,35.60
2018-02-22T03:02:51.906Z,36.00
2018-02-22T03:03:58.624Z,35.60
2018-02-22T03:05:05.341Z,35.00
2018-02-22T03:06:12.137Z,32.00
2018-02-22T03:07:18.870Z,36.30
2018-02-22T03:08:25.547Z,35.40
2018-02-22T03:09:32.422Z,37.10
2018-02-22T03:10:39.215Z,32.10
2018-02-22T03:11:45.944Z,29.80
2018-02-22T03:12:52.675Z,37.80
2018-02-22T03:13:59.376Z,32.70
2018-02-22T03:15:06.098Z,35.60
2018-02-22T03:16:12.809Z,36.00
2018-02-22T03:17:19.588Z,33.10
2018-02-22T03:18:26.274Z,33.00
2018-02-22T03:19:33.017Z,33.20
2018-02-22T03:20:39.723Z,32.20
2018-02-22T03:21:46.475Z,32.40
2018-02-22T03:22:53.280Z,29.90
2018-02-22T03:23:59.992Z,33.90
2018-02-22T03:25:06.717Z,34.10
2018-02-22T03:26:13.467Z,26.80
2018-02-22T03:27:20.184Z,29.80
2018-02-22T03:28:27.023Z,38.20
2018-02-22T03:29:33.748Z,31.50
2018-02-22T03:30:40.460Z,29.90
2018-02-22T03:31:47.163Z,29.20
2018-02-22T03:32:53.891Z,31.60
2018-02-22T03:34:00.590Z,29.80
2018-02-22T03:35:07.288Z,33.70
2018-02-22T03:36:13.960Z,28.60
2018-02-22T03:37:20.664Z,38.30
2018-02-22T03:38:27.532Z,32.70
2018-02-22T03:39:34.253Z,33.90
2018-02-22T03:40:41.020Z,34.20
2018-02-22T03:41:47.714Z,28.00
2018-02-22T03:42:54.427Z,28.60
2018-02-22T03:44:01.259Z,27.40
2018-02-22T03:45:07.957Z,30.00
2018-02-22T03:46:14.671Z,29.40
2018-02-22T03:47:21.392Z,27.60
2018-02-22T03:48:28.067Z,30.30
2018-02-22T03:49:34.801Z,31.10
2018-02-22T03:50:41.468Z,31.80
2018-02-22T03:51:48.173Z,31.10
2018-02-22T03:52:54.922Z,27.90
2018-02-22T03:54:01.653Z,29.10
2018-02-22T03:55:08.327Z,30.40
2018-02-22T03:56:15.004Z,28.00
2018-02-22T03:57:21.737Z,28.80
2018-02-22T03:58:28.434Z,28.60
2018-02-22T03:59:35.161Z,28.40
2018-02-22T04:00:41.856Z,31.60
2018-02-22T04:01:48.585Z,29.60
2018-02-22T04:02:55.768Z,29.30
2018-02-22T04:04:02.555Z,29.90
2018-02-22T04:05:09.357Z,31.40
2018-02-22T04:06:16.095Z,27.90
2018-02-22T04:07:22.818Z,28.80
2018-02-22T04:08:29.622Z,31.00
2018-02-22T04:09:36.345Z,27.80
2018-02-22T04:10:43.044Z,37.60
2018-02-22T04:11:50.215Z,39.60
2018-02-22T04:12:56.915Z,32.40
2018-02-22T04:14:03.620Z,30.90
2018-02-22T04:15:10.381Z,27.80
2018-02-22T04:16:17.081Z,29.00
2018-02-22T04:17:23.929Z,28.70
2018-02-22T04:18:30.672Z,29.40
2018-02-22T04:19:37.360Z,32.00
2018-02-22T04:20:44.124Z,29.10
2018-02-22T04:21:50.871Z,28.80
2018-02-22T04:22:57.729Z,27.20
2018-02-22T04:24:04.459Z,29.70
2018-02-22T04:25:11.147Z,30.30
2018-02-22T04:26:17.897Z,30.20
2018-02-22T04:27:24.619Z,29.00
2018-02-22T04:28:31.305Z,26.40
2018-02-22T04:29:37.981Z,28.50
2018-02-22T04:30:44.805Z,30.00
2018-02-22T04:31:51.508Z,32.60
2018-02-22T04:32:58.256Z,28.00
2018-02-22T04:34:04.991Z,28.80
2018-02-22T04:35:11.700Z,28.20
2018-02-22T04:36:18.423Z,29.00
2018-02-22T04:37:25.251Z,28.10
2018-02-22T04:38:32.049Z,27.80
2018-02-22T04:39:38.765Z,29.90
2018-02-22T04:40:45.558Z,26.80
2018-02-22T04:41:52.391Z,30.20
2018-02-22T04:42:59.109Z,26.80
2018-02-22T04:44:05.816Z,28.40
2018-02-22T04:45:12.542Z,28.50
2018-02-22T04:46:19.237Z,27.30
2018-02-22T04:47:25.987Z,26.80
2018-02-22T04:48:32.849Z,27.30
2018-02-22T04:49:39.551Z,28.80
2018-02-22T04:50:46.244Z,23.80
2018-02-22T04:51:52.936Z,30.70
2018-02-22T04:52:59.672Z,26.80
2018-02-22T04:54:06.373Z,29.30
2018-02-22T04:55:13.131Z,27.50
2018-02-22T04:56:19.949Z,24.70
2018-02-22T04:57:26.697Z,26.40
2018-02-22T04:58:33.448Z,25.50
2018-02-22T04:59:40.149Z,25.90
2018-02-22T05:00:46.869Z,28.10
2018-02-22T05:01:53.673Z,27.80
2018-02-22T05:03:00.396Z,26.20
2018-02-22T05:04:07.116Z,24.80
2018-02-22T05:05:13.812Z,29.00
2018-02-22T05:06:20.515Z,25.20
2018-02-22T05:07:27.576Z,25.50
2018-02-22T05:08:34.270Z,26.40
2018-02-22T05:09:40.991Z,23.10
2018-02-22T05:10:47.697Z,25.70
2018-02-22T05:11:54.388Z,29.20
2018-02-22T05:13:01.385Z,27.10
2018-02-22T05:14:08.149Z,28.60
2018-02-22T05:15:14.873Z,26.80
2018-02-22T05:16:21.568Z,26.50
2018-02-22T05:17:28.375Z,26.60
2018-02-22T05:18:35.304Z,27.30
2018-02-22T05:19:41.992Z,24.70
2018-02-22T05:20:48.820Z,27.30
2018-02-22T05:21:55.719Z,23.70
2018-02-22T05:23:02.423Z,22.90
2018-02-22T05:24:09.139Z,21.80
2018-02-22T05:25:15.915Z,25.20
2018-02-22T05:26:22.611Z,25.10
2018-02-22T05:27:29.355Z,24.60
2018-02-22T05:28:36.065Z,24.20
2018-02-22T05:29:43.053Z,28.70
2018-02-22T05:30:49.761Z,27.40
2018-02-22T05:31:56.455Z,27.20
2018-02-22T05:33:03.224Z,25.60
2018-02-22T05:34:09.918Z,26.20
2018-02-22T05:35:16.730Z,23.70
2018-02-22T05:36:23.440Z,26.20
2018-02-22T05:37:30.180Z,29.20
2018-02-22T05:38:36.948Z,26.10
2018-02-22T05:39:43.730Z,26.00
2018-02-22T05:40:50.544Z,22.70
2018-02-22T05:41:57.235Z,24.20
2018-02-22T05:43:03.967Z,30.90
2018-02-22T05:44:10.705Z,26.00
2018-02-22T05:45:17.410Z,24.80
2018-02-22T05:46:24.116Z,24.90
2018-02-22T05:47:30.835Z,26.10
2018-02-22T05:48:37.665Z,24.30
2018-02-22T05:49:44.436Z,23.00
2018-02-22T05:50:51.135Z,28.60
2018-02-22T05:51:57.854Z,25.60
2018-02-22T05:53:04.579Z,23.60
2018-02-22T05:54:11.414Z,25.80
2018-02-22T05:55:18.155Z,23.40
2018-02-22T05:56:24.868Z,27.40
2018-02-22T05:57:31.566Z,26.20
2018-02-22T05:58:38.287Z,25.00
2018-02-22T05:59:45.108Z,26.90
2018-02-22T06:00:51.841Z,24.40
2018-02-22T06:01:58.549Z,28.10
2018-02-22T06:03:05.388Z,23.40
2018-02-22T06:04:12.107Z,27.20
2018-02-22T06:05:18.816Z,25.80
2018-02-22T06:06:25.620Z,28.80
2018-02-22T06:07:32.319Z,24.10
2018-02-22T06:08:39.035Z,23.20
2018-02-22T06:09:45.764Z,25.30
2018-02-22T06:10:52.472Z,23.00
2018-02-22T06:11:59.167Z,25.10
2018-02-22T06:13:05.860Z,21.90
2018-02-22T06:14:12.952Z,26.70
2018-02-22T06:15:19.707Z,23.90
2018-02-22T06:16:26.493Z,25.90
2018-02-22T06:17:33.195Z,24.80
2018-02-22T06:18:39.903Z,24.50
2018-02-22T06:19:46.697Z,27.00
2018-02-22T06:20:53.460Z,25.40
2018-02-22T06:22:00.241Z,27.40
2018-02-22T06:23:07.016Z,27.50
2018-02-22T06:24:13.732Z,24.00
2018-02-22T06:25:20.466Z,27.80
2018-02-22T06:26:27.167Z,22.80
2018-02-22T06:27:33.977Z,24.30
2018-02-22T06:28:40.704Z,23.90
2018-02-22T06:29:47.432Z,22.40
2018-02-22T06:30:54.155Z,47.10
2018-02-22T06:32:00.976Z,33.50
2018-02-22T06:33:07.699Z,30.80
2018-02-22T06:34:14.520Z,27.90
2018-02-22T06:35:21.311Z,28.30
2018-02-22T06:36:28.088Z,26.50
2018-02-22T06:37:34.802Z,29.70
2018-02-22T06:38:41.488Z,28.40
2018-02-22T06:39:48.196Z,25.50
2018-02-22T06:40:55.033Z,23.00
2018-02-22T06:42:01.843Z,26.30
2018-02-22T06:43:08.577Z,35.90
2018-02-22T06:44:15.727Z,26.20
2018-02-22T06:45:22.448Z,31.10
2018-02-22T06:46:29.143Z,31.00
2018-02-22T06:47:35.971Z,27.80
2018-02-22T06:48:42.694Z,28.40
2018-02-22T06:49:49.387Z,31.40
2018-02-22T06:50:56.132Z,27.60
2018-02-22T06:52:02.858Z,25.50
2018-02-22T06:53:09.605Z,22.80
2018-02-22T06:54:16.404Z,25.10
2018-02-22T06:55:23.104Z,27.20
2018-02-22T06:56:29.809Z,23.50
2018-02-22T06:57:36.528Z,29.80
2018-02-22T06:58:43.359Z,27.00
2018-02-22T06:59:50.035Z,23.00
2018-02-22T07:00:56.868Z,24.40
2018-02-22T07:02:03.560Z,23.80
2018-02-22T07:03:10.280Z,22.40
2018-02-22T07:04:17.039Z,22.70
2018-02-22T07:05:23.735Z,25.80
2018-02-22T07:06:30.468Z,23.00
2018-02-22T07:07:37.301Z,21.60
2018-02-22T07:08:44.092Z,24.70
2018-02-22T07:09:50.861Z,22.60
2018-02-22T07:10:57.852Z,22.80
2018-02-22T07:12:04.576Z,20.90
2018-02-22T07:13:11.301Z,22.30
2018-02-22T07:14:18.134Z,25.90
2018-02-22T07:15:24.911Z,23.20
2018-02-22T07:16:31.600Z,22.80
2018-02-22T07:17:38.302Z,23.50
2018-02-22T07:18:45.035Z,22.40
2018-02-22T07:19:51.776Z,21.10
2018-02-22T07:20:58.483Z,18.60
2018-02-22T07:22:05.329Z,20.00
2018-02-22T07:23:16.789Z,20.90
2018-02-22T07:24:18.844Z,23.80
2018-02-22T07:25:25.608Z,20.00
2018-02-22T07:26:32.324Z,22.80
2018-02-22T07:27:39.132Z,20.40
2018-02-22T07:28:45.856Z,19.70
2018-02-22T07:29:52.587Z,21.90
2018-02-22T07:30:59.315Z,22.90
2018-02-22T07:32:06.236Z,20.40
2018-02-22T07:33:12.922Z,23.70
2018-02-22T07:34:19.645Z,21.70
2018-02-22T07:35:26.409Z,18.10
2018-02-22T07:36:33.181Z,24.80
2018-02-22T07:37:39.872Z,21.20
2018-02-22T07:38:46.676Z,17.20
2018-02-22T07:39:53.675Z,18.90
2018-02-22T07:41:00.612Z,22.50
2018-02-22T07:42:07.355Z,26.70
2018-02-22T07:43:14.081Z,19.20
2018-02-22T07:44:20.831Z,19.80
2018-02-22T07:45:27.625Z,19.70
2018-02-22T07:46:34.353Z,21.60
2018-02-22T07:47:41.197Z,19.90
2018-02-22T07:48:47.988Z,20.30
2018-02-22T07:49:54.761Z,27.30
2018-02-22T07:51:01.456Z,20.40
2018-02-22T07:52:08.188Z,25.10
2018-02-22T07:53:14.940Z,19.10
2018-02-22T07:54:21.636Z,19.90
2018-02-22T07:55:28.326Z,19.90
2018-02-22T07:56:35.160Z,21.70
2018-02-22T07:57:41.899Z,18.00
2018-02-22T07:58:48.600Z,17.70
2018-02-22T07:59:55.284Z,23.00
2018-02-22T08:01:02.001Z,19.70
2018-02-22T08:02:08.732Z,24.70
2018-02-22T08:03:15.565Z,23.50
2018-02-22T08:04:22.392Z,22.10
2018-02-22T08:05:29.164Z,19.80
2018-02-22T08:06:35.865Z,17.90
2018-02-22T08:07:42.647Z,18.00
2018-02-22T08:08:49.344Z,20.00
2018-02-22T08:09:56.048Z,15.90
2018-02-22T08:11:02.744Z,17.30
2018-02-22T08:12:09.568Z,22.20
2018-02-22T08:13:16.379Z,21.80
2018-02-22T08:14:23.168Z,18.20
2018-02-22T08:15:29.887Z,17.50
2018-02-22T08:16:36.597Z,19.40
2018-02-22T08:17:43.350Z,17.70
2018-02-22T08:18:50.127Z,20.80
2018-02-22T08:19:56.816Z,17.10
2018-02-22T08:21:03.536Z,16.90
2018-02-22T08:22:10.225Z,17.20
2018-02-22T08:23:16.992Z,16.90
2018-02-22T08:24:23.696Z,16.70
2018-02-22T08:25:30.384Z,16.20
2018-02-22T08:26:37.171Z,16.60
2018-02-22T08:27:43.865Z,16.00
2018-02-22T08:28:50.553Z,16.80
2018-02-22T08:29:57.260Z,17.10
2018-02-22T08:31:03.990Z,19.10
2018-02-22T08:32:10.698Z,18.90
2018-02-22T08:33:17.389Z,15.70
2018-02-22T08:34:24.248Z,15.30
2018-02-22T08:35:30.935Z,18.60
2018-02-22T08:36:37.657Z,18.90
2018-02-22T08:37:44.578Z,14.80
2018-02-22T08:38:51.321Z,14.70
2018-02-22T08:39:58.057Z,17.30
2018-02-22T08:41:04.769Z,16.10
2018-02-22T08:42:11.568Z,14.10
2018-02-22T08:43:18.407Z,12.80
2018-02-22T08:44:25.173Z,14.60
2018-02-22T08:45:31.912Z,16.10
2018-02-22T08:46:38.600Z,17.00
2018-02-22T08:47:45.454Z,15.50
2018-02-22T08:48:52.172Z,13.80
2018-02-22T08:49:58.986Z,15.70
2018-02-22T08:51:05.748Z,15.10
2018-02-22T08:52:12.514Z,16.30
2018-02-22T08:53:19.236Z,15.10
2018-02-22T08:54:26.020Z,17.50
2018-02-22T08:55:32.854Z,17.60
2018-02-22T08:56:39.611Z,16.30
2018-02-22T08:57:46.331Z,13.20
2018-02-22T08:58:53.082Z,15.50
2018-02-22T08:59:59.851Z,14.60
2018-02-22T09:01:06.701Z,13.80
2018-02-22T09:02:13.431Z,11.90
2018-02-22T09:03:20.209Z,13.80
2018-02-22T09:04:26.931Z,12.60
2018-02-22T09:05:34.015Z,11.90
2018-02-22T09:06:40.743Z,14.50
2018-02-22T09:07:47.882Z,13.20
2018-02-22T09:08:54.747Z,10.80
2018-02-22T09:10:01.543Z,13.00
2018-02-22T09:11:08.379Z,11.90
2018-02-22T09:12:15.209Z,12.70
2018-02-22T09:13:22.040Z,14.20
2018-02-22T09:14:28.780Z,13.70
2018-02-22T09:15:35.467Z,12.50
2018-02-22T09:16:42.203Z,12.90
2018-02-22T09:17:48.945Z,12.30
2018-02-22T09:18:55.644Z,13.60
2018-02-22T09:20:02.361Z,10.70
2018-02-22T09:21:09.092Z,11.20
2018-02-22T09:22:15.836Z,12.40
2018-02-22T09:23:22.601Z,11.50
2018-02-22T09:24:29.378Z,11.60
2018-02-22T09:25:36.098Z,12.00
2018-02-22T09:26:42.859Z,13.70
2018-02-22T09:27:49.558Z,9.70
2018-02-22T09:28:56.260Z,14.30
2018-02-22T09:30:03.044Z,12.30
2018-02-22T09:31:09.855Z,10.90
2018-02-22T09:32:16.576Z,12.40
2018-02-22T09:33:23.279Z,11.20
2018-02-22T09:34:30.013Z,11.60
2018-02-22T09:35:36.771Z,12.40
2018-02-22T09:36:43.495Z,12.10
2018-02-22T09:37:50.236Z,9.90
2018-02-22T09:38:56.976Z,13.40
2018-02-22T09:40:03.771Z,13.00
2018-02-22T09:41:10.489Z,14.10
2018-02-22T09:42:17.276Z,14.10
2018-02-22T09:43:24.049Z,11.50
2018-02-22T09:44:30.756Z,13.20
2018-02-22T09:45:37.962Z,12.30
2018-02-22T09:46:44.297Z,13.40
2018-02-22T09:47:51.224Z,11.90
2018-02-22T09:48:58.168Z,11.90
2018-02-22T09:50:04.928Z,11.40
2018-02-22T09:51:11.722Z,12.20
2018-02-22T09:52:18.531Z,13.20
2018-02-22T09:53:25.308Z,10.10
2018-02-22T09:54:32.146Z,14.60
2018-02-22T09:55:38.858Z,14.50
2018-02-22T09:56:45.539Z,13.60
2018-02-22T09:57:52.272Z,11.50
2018-02-22T09:58:59.014Z,10.50
2018-02-22T10:00:05.740Z,9.20
2018-02-22T10:01:12.563Z,12.00
2018-02-22T10:02:19.578Z,12.40
2018-02-22T10:03:26.329Z,14.20
2018-02-22T10:04:33.081Z,14.70
2018-02-22T10:05:40.180Z,13.20
2018-02-22T10:06:46.967Z,13.20
2018-02-22T10:07:53.719Z,14.00
2018-02-22T10:09:00.435Z,12.20
2018-02-22T10:10:07.371Z,14.60
2018-02-22T10:11:14.091Z,9.50
2018-02-22T10:12:20.795Z,12.40
2018-02-22T10:13:27.607Z,13.60
2018-02-22T10:14:34.474Z,13.10
2018-02-22T10:15:41.201Z,11.80
2018-02-22T10:16:47.937Z,12.10
2018-02-22T10:17:54.724Z,12.30
2018-02-22T10:19:01.416Z,13.90
2018-02-22T10:20:08.284Z,10.30
2018-02-22T10:21:15.010Z,12.70
2018-02-22T10:22:21.789Z,11.90
2018-02-22T10:23:28.490Z,13.50
2018-02-22T10:24:36.155Z,12.20
2018-02-22T10:25:41.936Z,11.20
2018-02-22T10:26:48.628Z,10.00
2018-02-22T10:27:55.351Z,10.10
2018-02-22T10:29:02.119Z,9.50
2018-02-22T10:30:08.868Z,11.70
2018-02-22T10:31:15.655Z,15.20
2018-02-22T10:32:22.351Z,10.90
2018-02-22T10:33:29.187Z,12.20
2018-02-22T10:34:35.934Z,11.50
2018-02-22T10:35:42.692Z,10.10
2018-02-22T10:36:49.442Z,10.20
2018-02-22T10:37:56.216Z,10.50
2018-02-22T10:39:02.989Z,13.50
2018-02-22T10:40:09.733Z,13.40
2018-02-22T10:41:16.455Z,11.50
2018-02-22T10:42:23.292Z,9.10
2018-02-22T10:43:30.039Z,11.50
2018-02-22T10:44:36.796Z,11.30
2018-02-22T10:45:44.227Z,11.90
2018-02-22T10:46:51.242Z,13.30
2018-02-22T10:47:58.311Z,10.00
2018-02-22T10:49:04.919Z,10.40
2018-02-22T10:50:11.437Z,12.60
2018-02-22T10:51:18.562Z,10.70
2018-02-22T10:52:25.420Z,12.50
2018-02-22T10:53:32.196Z,13.70
2018-02-22T10:54:39.888Z,12.20
2018-02-22T10:55:45.657Z,11.00
2018-02-22T10:56:52.388Z,10.80
2018-02-22T10:57:59.099Z,12.10
2018-02-22T10:59:05.881Z,10.50
2018-02-22T11:00:12.578Z,12.40
2018-02-22T11:01:19.378Z,11.70
2018-02-22T11:02:26.160Z,9.70
2018-02-22T11:03:33.000Z,11.40
2018-02-22T11:04:39.805Z,9.50
2018-02-22T11:05:46.541Z,12.20
2018-02-22T11:06:53.339Z,11.20
2018-02-22T11:08:00.096Z,10.20
2018-02-22T11:09:06.829Z,10.00
2018-02-22T11:10:13.864Z,8.60
2018-02-22T11:11:20.600Z,12.90
2018-02-22T11:12:27.337Z,9.60
2018-02-22T11:13:34.143Z,11.50
2018-02-22T11:14:40.920Z,11.80
2018-02-22T11:15:47.612Z,10.30
2018-02-22T11:16:54.360Z,10.40
2018-02-22T11:18:01.240Z,9.70
2018-02-22T11:19:08.107Z,9.70
2018-02-22T11:20:14.958Z,10.30
2018-02-22T11:21:21.672Z,9.20
2018-02-22T11:22:28.448Z,12.70
2018-02-22T11:23:35.193Z,8.60
2018-02-22T11:24:41.936Z,8.90
2018-02-22T11:25:48.688Z,8.30
2018-02-22T11:26:55.415Z,10.70
2018-02-22T11:28:02.230Z,8.80
2018-02-22T11:29:08.956Z,10.70
2018-02-22T11:30:15.744Z,10.00
2018-02-22T11:31:22.480Z,12.40
2018-02-22T11:32:29.195Z,11.60
2018-02-22T11:33:35.904Z,9.80
2018-02-22T11:34:42.662Z,10.70
2018-02-22T11:35:49.464Z,11.10
2018-02-22T11:36:56.179Z,12.50
2018-02-22T11:38:02.914Z,11.70
2018-02-22T11:39:09.632Z,10.80
2018-02-22T11:40:16.375Z,10.90
2018-02-22T11:41:23.327Z,10.70
2018-02-22T11:42:30.035Z,10.90
2018-02-22T11:43:36.786Z,18.70
2018-02-22T11:44:43.529Z,22.40
2018-02-22T11:45:50.273Z,14.00
2018-02-22T11:46:57.114Z,26.10
2018-02-22T11:48:03.841Z,51.20
2018-02-22T11:49:10.571Z,16.70
2018-02-22T11:50:17.397Z,11.40
2018-02-22T11:51:24.119Z,10.70
2018-02-22T11:52:30.859Z,11.00
2018-02-22T11:53:37.569Z,12.80
2018-02-22T11:54:44.315Z,11.70
2018-02-22T11:55:51.103Z,10.90
2018-02-22T11:56:57.792Z,13.00
2018-02-22T11:58:04.561Z,9.70
2018-02-22T11:59:11.268Z,11.50
2018-02-22T12:00:18.111Z,10.80
2018-02-22T12:01:24.839Z,10.50
2018-02-22T12:02:31.536Z,12.30
2018-02-22T12:03:38.256Z,11.00
2018-02-22T12:04:44.963Z,10.20
2018-02-22T12:05:52.080Z,13.10
2018-02-22T12:06:58.839Z,9.80
2018-02-22T12:08:05.563Z,13.30
2018-02-22T12:09:12.387Z,9.10
2018-02-22T12:10:19.115Z,10.60
2018-02-22T12:11:25.899Z,10.40
2018-02-22T12:12:32.603Z,13.20
2018-02-22T12:13:39.448Z,12.20
2018-02-22T12:14:46.171Z,11.00
2018-02-22T12:15:52.932Z,12.50
2018-02-22T12:16:59.683Z,11.80
2018-02-22T12:18:06.396Z,9.70
2018-02-22T12:19:13.175Z,10.50
2018-02-22T12:20:19.874Z,11.20
2018-02-22T12:21:26.618Z,11.90
2018-02-22T12:22:33.362Z,10.60
2018-02-22T12:23:40.457Z,9.40
2018-02-22T12:24:47.227Z,8.50
2018-02-22T12:25:54.047Z,10.50
2018-02-22T12:27:00.764Z,10.90
2018-02-22T12:28:07.525Z,10.10
2018-02-22T12:29:14.258Z,9.70
2018-02-22T12:30:21.161Z,13.30
2018-02-22T12:31:27.914Z,9.90
2018-02-22T12:32:34.643Z,10.40
2018-02-22T12:33:41.448Z,9.90
2018-02-22T12:34:48.208Z,11.90
2018-02-22T12:35:54.920Z,9.60
2018-02-22T12:37:01.682Z,9.10
2018-02-22T12:38:08.531Z,10.60
2018-02-22T12:39:15.255Z,11.70
2018-02-22T12:40:21.999Z,9.80
2018-02-22T12:41:28.784Z,9.60
2018-02-22T12:42:35.524Z,8.10
2018-02-22T12:43:42.339Z,9.40
2018-02-22T12:44:49.020Z,8.90
2018-02-22T12:45:55.776Z,13.70
2018-02-22T12:47:02.568Z,9.30
2018-02-22T12:48:09.428Z,10.20
2018-02-22T12:49:16.201Z,8.30
2018-02-22T12:50:22.987Z,11.00
2018-02-22T12:51:29.707Z,10.30
2018-02-22T12:52:36.492Z,8.70
2018-02-22T12:53:43.248Z,9.90
2018-02-22T12:54:50.108Z,10.60
2018-02-22T12:55:56.930Z,11.80
2018-02-22T12:57:03.639Z,10.20
2018-02-22T12:58:10.409Z,11.90
2018-02-22T12:59:17.138Z,11.80
2018-02-22T13:00:23.832Z,14.20
2018-02-22T13:01:30.681Z,11.40
2018-02-22T13:02:37.400Z,11.20
2018-02-22T13:03:44.177Z,10.10
2018-02-22T13:04:50.908Z,10.20
2018-02-22T13:05:57.608Z,13.40
2018-02-22T13:07:04.594Z,9.80
2018-02-22T13:08:11.304Z,11.20
2018-02-22T13:09:18.024Z,9.80
2018-02-22T13:10:24.708Z,10.40
2018-02-22T13:11:31.496Z,11.80
2018-02-22T13:12:38.458Z,7.70
2018-02-22T13:13:45.295Z,7.60
2018-02-22T13:14:52.124Z,12.80
2018-02-22T13:15:58.923Z,10.90
2018-02-22T13:17:05.729Z,10.50
2018-02-22T13:18:12.484Z,8.60
2018-02-22T13:19:19.276Z,8.60
2018-02-22T13:20:26.004Z,9.30
2018-02-22T13:21:32.791Z,9.60
2018-02-22T13:22:39.475Z,11.80
2018-02-22T13:23:46.230Z,8.60
2018-02-22T13:24:52.979Z,11.70
2018-02-22T13:25:59.672Z,10.40
2018-02-22T13:27:06.390Z,8.50
2018-02-22T13:28:13.148Z,9.30
2018-02-22T13:29:19.840Z,10.90
2018-02-22T13:30:26.888Z,10.90
2018-02-22T13:31:33.624Z,9.10
2018-02-22T13:32:40.355Z,8.10
2018-02-22T13:33:47.175Z,10.40
2018-02-22T13:34:53.970Z,10.30
2018-02-22T13:36:00.698Z,12.20
2018-02-22T13:37:07.576Z,11.60
2018-02-22T13:38:14.444Z,7.90
2018-02-22T13:39:25.220Z,7.90
2018-02-22T13:40:31.956Z,9.60
2018-02-22T13:41:38.945Z,9.70
2018-02-22T13:42:45.643Z,9.70
2018-02-22T13:43:52.363Z,9.50
2018-02-22T13:44:59.210Z,8.60
2018-02-22T13:46:06.088Z,10.50
2018-02-22T13:47:12.823Z,9.30
2018-02-22T13:48:19.558Z,9.40
2018-02-22T13:49:26.259Z,9.80
2018-02-22T13:50:33.172Z,10.00
2018-02-22T13:51:40.073Z,10.80
2018-02-22T13:52:46.893Z,10.50
2018-02-22T13:53:53.688Z,11.20
2018-02-22T13:55:00.392Z,9.10
2018-02-22T13:56:07.132Z,11.20
2018-02-22T13:57:13.968Z,9.60
2018-02-22T13:58:20.664Z,8.90
2018-02-22T13:59:27.409Z,10.20
2018-02-22T14:00:34.090Z,11.70
2018-02-22T14:01:41.160Z,13.90
2018-02-22T14:02:48.204Z,11.20
2018-02-22T14:03:54.944Z,11.20
2018-02-22T14:05:01.672Z,10.00
2018-02-22T14:06:08.409Z,10.70
2018-02-22T14:07:15.179Z,11.90
2018-02-22T14:08:21.920Z,13.90
2018-02-22T14:09:28.760Z,10.00
2018-02-22T14:10:35.832Z,10.50
2018-02-22T14:11:42.548Z,12.20
2018-02-22T14:12:49.295Z,11.60
2018-02-22T14:13:56.028Z,12.70
2018-02-22T14:15:02.797Z,10.80
2018-02-22T14:16:09.641Z,9.90
2018-02-22T14:17:16.448Z,11.60
2018-02-22T14:18:23.228Z,11.10
2018-02-22T14:19:29.947Z,12.10
2018-02-22T14:20:36.657Z,9.70
2018-02-22T14:21:43.424Z,9.60